Terminal Aerodrome Forecast
Issued by NWS Newport/Morehead City, NC

Home | Current Version | Previous Version | Graphics & Text | Print | Product List | Glossary On
Versions: 1 2 3 4 5 6 7 8 9 10 11 12 13 14 15 16 17 18 19 20 21 22
000
FTUS42 KMHX 011605 AAB
TAFEWN
TAF AMD
KEWN 011605Z 0116/0212 36005KT P6SM SCT015 BKN025 OVC030
     FM011800 01013G20KT 5SM SHRA BR BKN015
     FM020000 35011KT P6SM SCT015 SCT025 BKN035
     FM020500 34009KT P6SM SKC=

USA.gov is the U.S. government's official web portal to all federal, state and local government web resources and services.